sensor_id;sensor_type;location;lat;lon;timestamp;pressure;altitude;pressure_sealevel;temperature;humidity
84024;BME280;74109;45.636;25.582;2024-01-30T00:01:47;96843.08;;;-5.87;67.57
84024;BME280;74109;45.636;25.582;2024-01-30T00:05:19;96843.38;;;-5.84;67.25
84024;BME280;74109;45.636;25.582;2024-01-30T00:09:29;96842.73;;;-5.80;67.17
84024;BME280;74109;45.636;25.582;2024-01-30T00:15:55;96838.20;;;-5.77;67.35
84024;BME280;74109;45.636;25.582;2024-01-30T00:19:19;96840.02;;;-5.75;67.19
84024;BME280;74109;45.636;25.582;2024-01-30T00:44:16;96833.20;;;-6.15;66.99
84024;BME280;74109;45.636;25.582;2024-01-30T00:51:05;96836.43;;;-6.23;66.61
84024;BME280;74109;45.636;25.582;2024-01-30T00:54:48;96835.35;;;-6.22;67.36
84024;BME280;74109;45.636;25.582;2024-01-30T01:01:35;96830.80;;;-6.14;67.47
84024;BME280;74109;45.636;25.582;2024-01-30T01:26:53;96811.48;;;-6.04;66.37
84024;BME280;74109;45.636;25.582;2024-01-30T01:37:40;96798.17;;;-6.25;67.18
84024;BME280;74109;45.636;25.582;2024-01-30T01:45:02;96793.98;;;-6.36;67.56
84024;BME280;74109;45.636;25.582;2024-01-30T01:59:07;96801.14;;;-6.21;67.25
84024;BME280;74109;45.636;25.582;2024-01-30T02:06:07;96803.98;;;-6.15;67.84
84024;BME280;74109;45.636;25.582;2024-01-30T02:13:21;96809.27;;;-5.96;67.58
84024;BME280;74109;45.636;25.582;2024-01-30T02:20:33;96809.14;;;-5.86;67.07
84024;BME280;74109;45.636;25.582;2024-01-30T02:35:15;96803.14;;;-6.18;66.80
84024;BME280;74109;45.636;25.582;2024-01-30T02:38:42;96795.22;;;-6.26;66.50
84024;BME280;74109;45.636;25.582;2024-01-30T02:42:57;96800.77;;;-6.34;67.01
84024;BME280;74109;45.636;25.582;2024-01-30T02:49:44;96812.23;;;-6.46;66.83
84024;BME280;74109;45.636;25.582;2024-01-30T02:53:21;96816.55;;;-6.45;67.07
84024;BME280;74109;45.636;25.582;2024-01-30T03:03:49;96824.88;;;-6.38;67.61
84024;BME280;74109;45.636;25.582;2024-01-30T03:07:27;96817.31;;;-6.33;67.90
84024;BME280;74109;45.636;25.582;2024-01-30T03:25:56;96837.96;;;-6.41;66.83
84024;BME280;74109;45.636;25.582;2024-01-30T03:44:22;96816.73;;;-6.75;67.04
84024;BME280;74109;45.636;25.582;2024-01-30T03:50:56;96814.67;;;-6.72;67.64
84024;BME280;74109;45.636;25.582;2024-01-30T04:15:15;96812.45;;;-6.44;66.58
84024;BME280;74109;45.636;25.582;2024-01-30T04:19:02;96811.57;;;-6.52;66.07
84024;BME280;74109;45.636;25.582;2024-01-30T04:32:35;96816.63;;;-6.88;66.57
84024;BME280;74109;45.636;25.582;2024-01-30T04:35:08;96821.65;;;-6.87;66.69
84024;BME280;74109;45.636;25.582;2024-01-30T04:45:49;96830.38;;;-6.71;67.30
84024;BME280;74109;45.636;25.582;2024-01-30T04:52:43;96830.33;;;-6.61;67.79
84024;BME280;74109;45.636;25.582;2024-01-30T05:06:53;96832.45;;;-6.63;66.97
84024;BME280;74109;45.636;25.582;2024-01-30T05:10:01;96833.05;;;-6.65;66.26
84024;BME280;74109;45.636;25.582;2024-01-30T05:13:55;96831.89;;;-6.70;66.55
84024;BME280;74109;45.636;25.582;2024-01-30T05:16:44;96832.55;;;-6.81;66.93
84024;BME280;74109;45.636;25.582;2024-01-30T05:20:21;96834.62;;;-6.91;66.90
84024;BME280;74109;45.636;25.582;2024-01-30T05:27:20;96844.82;;;-7.12;66.55
84024;BME280;74109;45.636;25.582;2024-01-30T05:30:55;96847.25;;;-7.20;66.93
84024;BME280;74109;45.636;25.582;2024-01-30T05:48:57;96869.48;;;-6.87;67.96
84024;BME280;74109;45.636;25.582;2024-01-30T06:10:27;96869.96;;;-6.83;67.72
84024;BME280;74109;45.636;25.582;2024-01-30T06:19:40;96867.94;;;-7.03;66.92
84024;BME280;74109;45.636;25.582;2024-01-30T06:23:32;96873.15;;;-7.09;67.54
84024;BME280;74109;45.636;25.582;2024-01-30T06:26:52;96871.56;;;-7.08;67.19
84024;BME280;74109;45.636;25.582;2024-01-30T06:30:28;96870.52;;;-7.07;67.37
84024;BME280;74109;45.636;25.582;2024-01-30T06:33:27;96875.66;;;-7.00;67.73
84024;BME280;74109;45.636;25.582;2024-01-30T06:36:52;96874.62;;;-6.91;67.88
84024;BME280;74109;45.636;25.582;2024-01-30T06:39:45;96876.55;;;-6.84;67.11
84024;BME280;74109;45.636;25.582;2024-01-30T06:42:45;96876.09;;;-6.82;67.09
84024;BME280;74109;45.636;25.582;2024-01-30T06:46:00;96876.93;;;-6.76;67.48
84024;BME280;74109;45.636;25.582;2024-01-30T06:48:45;96884.67;;;-6.71;67.12
84024;BME280;74109;45.636;25.582;2024-01-30T06:52:01;96884.35;;;-6.68;67.04
84024;BME280;74109;45.636;25.582;2024-01-30T06:55:06;96888.41;;;-6.60;67.03
84024;BME280;74109;45.636;25.582;2024-01-30T06:59:11;96889.46;;;-6.64;67.51
84024;BME280;74109;45.636;25.582;2024-01-30T07:07:02;96891.60;;;-6.66;66.77
84024;BME280;74109;45.636;25.582;2024-01-30T07:10:32;96899.13;;;-6.65;66.56
84024;BME280;74109;45.636;25.582;2024-01-30T07:13:22;96906.47;;;-6.62;66.46
84024;BME280;74109;45.636;25.582;2024-01-30T07:16:28;96906.70;;;-6.60;66.07
84024;BME280;74109;45.636;25.582;2024-01-30T07:19:22;96900.80;;;-6.68;66.60
84024;BME280;74109;45.636;25.582;2024-01-30T07:22:31;96908.39;;;-6.63;66.16
84024;BME280;74109;45.636;25.582;2024-01-30T07:25:02;96905.70;;;-6.60;66.17
84024;BME280;74109;45.636;25.582;2024-01-30T07:31:39;96906.98;;;-6.40;67.01
84024;BME280;74109;45.636;25.582;2024-01-30T07:34:15;96908.38;;;-6.26;67.34
84024;BME280;74109;45.636;25.582;2024-01-30T07:37:08;96916.36;;;-6.14;66.80
84024;BME280;74109;45.636;25.582;2024-01-30T07:39:49;96915.29;;;-6.10;67.15
84024;BME280;74109;45.636;25.582;2024-01-30T07:42:20;96920.02;;;-6.05;67.15
84024;BME280;74109;45.636;25.582;2024-01-30T07:45:00;96909.58;;;-6.10;66.76
84024;BME280;74109;45.636;25.582;2024-01-30T07:47:51;96919.08;;;-6.08;66.59
84024;BME280;74109;45.636;25.582;2024-01-30T07:51:31;96919.20;;;-6.11;66.93
84024;BME280;74109;45.636;25.582;2024-01-30T07:54:44;96913.21;;;-6.11;66.74
84024;BME280;74109;45.636;25.582;2024-01-30T08:02:06;96910.19;;;-6.22;67.21
84024;BME280;74109;45.636;25.582;2024-01-30T08:06:00;96903.30;;;-6.25;67.12
84024;BME280;74109;45.636;25.582;2024-01-30T08:09:24;96900.16;;;-6.24;66.92
84024;BME280;74109;45.636;25.582;2024-01-30T08:23:06;96888.94;;;-4.76;64.63
84024;BME280;74109;45.636;25.582;2024-01-30T08:43:43;96898.92;;;-0.45;51.13
84024;BME280;74109;45.636;25.582;2024-01-30T09:15:38;96887.07;;;3.01;43.14
84024;BME280;74109;45.636;25.582;2024-01-30T10:11:40;96849.42;;;2.66;44.84
84024;BME280;74109;45.636;25.582;2024-01-30T10:19:20;96849.23;;;2.65;44.98
84024;BME280;74109;45.636;25.582;2024-01-30T10:22:10;96838.20;;;2.52;44.51
84024;BME280;74109;45.636;25.582;2024-01-30T10:25:10;96834.32;;;2.32;44.82
84024;BME280;74109;45.636;25.582;2024-01-30T10:28:38;96832.38;;;2.29;45.40
84024;BME280;74109;45.636;25.582;2024-01-30T10:35:02;96831.23;;;2.34;45.94
84024;BME280;74109;45.636;25.582;2024-01-30T10:38:13;96822.76;;;2.26;45.67
84024;BME280;74109;45.636;25.582;2024-01-30T10:41:08;96813.91;;;2.14;45.67
84024;BME280;74109;45.636;25.582;2024-01-30T10:43:51;96814.16;;;2.36;46.30
84024;BME280;74109;45.636;25.582;2024-01-30T10:46:29;96815.91;;;2.48;46.15
84024;BME280;74109;45.636;25.582;2024-01-30T10:49:22;96798.45;;;2.47;45.58
84024;BME280;74109;45.636;25.582;2024-01-30T10:52:34;96797.42;;;2.48;45.90
84024;BME280;74109;45.636;25.582;2024-01-30T10:55:25;96796.23;;;2.50;45.28
84024;BME280;74109;45.636;25.582;2024-01-30T10:57:55;96796.81;;;2.48;45.28
84024;BME280;74109;45.636;25.582;2024-01-30T11:00:25;96793.25;;;2.44;45.20
84024;BME280;74109;45.636;25.582;2024-01-30T11:02:59;96786.80;;;2.49;45.44
84024;BME280;74109;45.636;25.582;2024-01-30T11:05:29;96779.72;;;2.50;45.32
84024;BME280;74109;45.636;25.582;2024-01-30T11:08:12;96776.80;;;2.48;45.48
84024;BME280;74109;45.636;25.582;2024-01-30T11:11:11;96763.60;;;2.42;45.42
84024;BME280;74109;45.636;25.582;2024-01-30T11:13:46;96774.19;;;2.47;44.95
84024;BME280;74109;45.636;25.582;2024-01-30T11:16:20;96770.02;;;2.60;44.99
84024;BME280;74109;45.636;25.582;2024-01-30T11:18:50;96767.17;;;2.65;45.55
84024;BME280;74109;45.636;25.582;2024-01-30T11:21:25;96767.34;;;2.74;44.95
84024;BME280;74109;45.636;25.582;2024-01-30T11:23:55;96761.71;;;2.84;44.98
84024;BME280;74109;45.636;25.582;2024-01-30T11:26:36;96762.75;;;2.92;44.91
84024;BME280;74109;45.636;25.582;2024-01-30T11:29:07;96759.66;;;2.96;45.09
84024;BME280;74109;45.636;25.582;2024-01-30T11:31:38;96758.02;;;2.94;44.59
84024;BME280;74109;45.636;25.582;2024-01-30T11:34:06;96753.07;;;2.98;45.11
84024;BME280;74109;45.636;25.582;2024-01-30T11:36:35;96750.53;;;2.98;44.28
84024;BME280;74109;45.636;25.582;2024-01-30T11:39:04;96744.13;;;2.92;44.05
84024;BME280;74109;45.636;25.582;2024-01-30T11:41:34;96739.20;;;2.97;44.62
84024;BME280;74109;45.636;25.582;2024-01-30T11:44:08;96734.98;;;3.07;44.56
84024;BME280;74109;45.636;25.582;2024-01-30T11:46:38;96734.97;;;3.12;44.44
84024;BME280;74109;45.636;25.582;2024-01-30T11:49:22;96731.92;;;3.17;44.26
84024;BME280;74109;45.636;25.582;2024-01-30T11:51:52;96731.58;;;3.19;44.07
84024;BME280;74109;45.636;25.582;2024-01-30T11:54:22;96726.87;;;3.26;44.55
84024;BME280;74109;45.636;25.582;2024-01-30T11:56:49;96721.29;;;3.29;44.16
84024;BME280;74109;45.636;25.582;2024-01-30T11:59:16;96720.67;;;3.30;43.86
84024;BME280;74109;45.636;25.582;2024-01-30T12:01:44;96715.94;;;3.30;43.87
84024;BME280;74109;45.636;25.582;2024-01-30T12:04:11;96713.67;;;3.25;43.35
84024;BME280;74109;45.636;25.582;2024-01-30T12:06:38;96714.70;;;3.27;43.96
84024;BME280;74109;45.636;25.582;2024-01-30T12:09:06;96714.18;;;3.27;44.03
84024;BME280;74109;45.636;25.582;2024-01-30T12:11:48;96710.75;;;3.24;44.24
84024;BME280;74109;45.636;25.582;2024-01-30T12:14:16;96707.61;;;3.29;44.46
84024;BME280;74109;45.636;25.582;2024-01-30T12:16:48;96701.31;;;3.27;44.63
84024;BME280;74109;45.636;25.582;2024-01-30T12:19:25;96707.55;;;3.33;44.76
84024;BME280;74109;45.636;25.582;2024-01-30T12:21:57;96705.32;;;3.33;44.53
84024;BME280;74109;45.636;25.582;2024-01-30T12:24:27;96702.94;;;3.32;44.77
84024;BME280;74109;45.636;25.582;2024-01-30T12:26:58;96701.89;;;3.23;45.19
84024;BME280;74109;45.636;25.582;2024-01-30T12:29:25;96699.13;;;3.19;44.86
84024;BME280;74109;45.636;25.582;2024-01-30T12:31:56;96700.45;;;3.19;44.82
84024;BME280;74109;45.636;25.582;2024-01-30T12:34:24;96701.87;;;3.27;45.28
84024;BME280;74109;45.636;25.582;2024-01-30T12:36:52;96695.02;;;3.27;45.33
84024;BME280;74109;45.636;25.582;2024-01-30T12:39:19;96698.29;;;3.22;45.39
84024;BME280;74109;45.636;25.582;2024-01-30T12:41:46;96696.88;;;3.14;45.59
84024;BME280;74109;45.636;25.582;2024-01-30T12:44:14;96702.80;;;3.08;45.85
84024;BME280;74109;45.636;25.582;2024-01-30T12:46:41;96705.03;;;3.01;46.44
84024;BME280;74109;45.636;25.582;2024-01-30T12:49:08;96701.45;;;3.06;46.86
84024;BME280;74109;45.636;25.582;2024-01-30T12:51:41;96696.66;;;3.09;46.73
84024;BME280;74109;45.636;25.582;2024-01-30T12:54:12;96694.98;;;3.13;46.66
84024;BME280;74109;45.636;25.582;2024-01-30T12:56:39;96695.83;;;3.13;46.48
84024;BME280;74109;45.636;25.582;2024-01-30T12:59:09;96691.84;;;3.11;46.53
84024;BME280;74109;45.636;25.582;2024-01-30T13:01:43;96696.52;;;3.11;46.52
84024;BME280;74109;45.636;25.582;2024-01-30T13:04:10;96689.61;;;3.07;46.38
84024;BME280;74109;45.636;25.582;2024-01-30T13:06:40;96683.51;;;3.01;46.46
84024;BME280;74109;45.636;25.582;2024-01-30T13:09:12;96684.33;;;3.05;46.38
84024;BME280;74109;45.636;25.582;2024-01-30T13:11:45;96687.05;;;3.08;46.77
84024;BME280;74109;45.636;25.582;2024-01-30T13:14:18;96686.58;;;3.09;47.05
84024;BME280;74109;45.636;25.582;2024-01-30T13:16:49;96687.50;;;3.09;46.37
84024;BME280;74109;45.636;25.582;2024-01-30T13:19:18;96687.08;;;3.05;46.25
84024;BME280;74109;45.636;25.582;2024-01-30T13:21:49;96686.20;;;2.96;46.65
84024;BME280;74109;45.636;25.582;2024-01-30T13:24:19;96683.41;;;2.85;46.78
84024;BME280;74109;45.636;25.582;2024-01-30T13:27:42;96686.83;;;2.82;46.77
84024;BME280;74109;45.636;25.582;2024-01-30T13:30:47;96678.83;;;2.80;47.50
84024;BME280;74109;45.636;25.582;2024-01-30T13:40:56;96682.91;;;2.59;47.42
84024;BME280;74109;45.636;25.582;2024-01-30T13:47:17;96691.44;;;2.35;47.75
84024;BME280;74109;45.636;25.582;2024-01-30T14:21:23;96684.87;;;1.31;51.37
84024;BME280;74109;45.636;25.582;2024-01-30T14:35:31;96685.77;;;0.51;53.35
84024;BME280;74109;45.636;25.582;2024-01-30T14:58:19;96666.99;;;-0.77;57.35
84024;BME280;74109;45.636;25.582;2024-01-30T15:24:06;96674.28;;;-1.89;60.47
84024;BME280;74109;45.636;25.582;2024-01-30T16:36:40;96695.11;;;-3.26;66.51
84024;BME280;74109;45.636;25.582;2024-01-30T17:14:11;96683.42;;;-3.52;66.51
84024;BME280;74109;45.636;25.582;2024-01-30T17:45:14;96677.75;;;-3.69;66.27
84024;BME280;74109;45.636;25.582;2024-01-30T23:59:28;96536.41;;;-5.81;67.40
